createdAt,value
2022-10-05T00:01:35.762Z,1.10
2022-10-05T00:04:18.606Z,1.25
2022-10-05T00:06:57.993Z,1.55
2022-10-05T00:09:25.383Z,1.92
2022-10-05T00:11:52.673Z,1.60
2022-10-05T00:14:30.916Z,2.10
2022-10-05T00:16:58.397Z,1.10
2022-10-05T00:19:46.470Z,1.38
2022-10-05T00:22:19.336Z,1.15
2022-10-05T00:24:48.495Z,1.20
2022-10-05T00:27:25.799Z,1.00
2022-10-05T00:29:57.854Z,1.70
2022-10-05T00:32:25.100Z,1.17
2022-10-05T00:34:52.653Z,1.38
2022-10-05T00:37:19.970Z,1.15
2022-10-05T00:39:49.470Z,1.27
2022-10-05T00:42:48.706Z,0.95
2022-10-05T00:45:27.364Z,2.17
2022-10-05T00:48:15.026Z,1.00
2022-10-05T00:51:01.296Z,0.88
2022-10-05T00:53:55.504Z,0.95
2022-10-05T00:56:36.568Z,2.08
2022-10-05T00:59:22.911Z,0.90
2022-10-05T01:02:12.236Z,1.23
2022-10-05T01:05:00.615Z,2.20
2022-10-05T01:07:56.929Z,1.42
2022-10-05T01:10:43.491Z,1.95
2022-10-05T01:13:30.578Z,1.45
2022-10-05T01:16:31.071Z,1.45
2022-10-05T01:19:37.137Z,0.95
2022-10-05T01:22:30.002Z,0.82
2022-10-05T01:25:38.200Z,0.95
2022-10-05T01:28:26.688Z,1.70
2022-10-05T01:31:12.881Z,0.90
2022-10-05T01:33:59.239Z,1.25
2022-10-05T01:36:50.811Z,1.75
2022-10-05T01:39:40.654Z,1.25
2022-10-05T01:42:13.603Z,1.40
2022-10-05T01:45:18.994Z,1.67
2022-10-05T01:48:08.897Z,1.52
2022-10-05T01:51:20.346Z,1.13
2022-10-05T01:53:53.292Z,1.23
2022-10-05T01:56:50.271Z,0.88
2022-10-05T02:00:01.378Z,1.30
2022-10-05T02:02:31.627Z,0.90
2022-10-05T02:05:32.326Z,1.17
2022-10-05T02:08:27.519Z,1.30
2022-10-05T02:11:07.796Z,0.90
2022-10-05T02:13:55.860Z,1.20
2022-10-05T02:16:49.687Z,2.60
2022-10-05T02:19:41.529Z,1.63
2022-10-05T02:22:35.295Z,1.15
2022-10-05T02:25:12.738Z,1.13
2022-10-05T02:27:52.852Z,2.20
2022-10-05T02:30:20.433Z,0.80
2022-10-05T02:33:04.377Z,1.40
2022-10-05T02:35:31.727Z,1.58
2022-10-05T02:38:10.921Z,1.63
2022-10-05T02:41:01.457Z,2.20
2022-10-05T02:43:38.996Z,1.40
2022-10-05T02:46:26.527Z,1.80
2022-10-05T02:49:12.525Z,1.10
2022-10-05T02:52:08.794Z,2.15
2022-10-05T02:55:10.325Z,1.65
2022-10-05T02:57:40.363Z,1.20
2022-10-05T03:00:25.125Z,1.95
2022-10-05T03:03:20.283Z,1.67
2022-10-05T03:06:03.683Z,1.10
2022-10-05T03:08:36.939Z,1.30
2022-10-05T03:11:28.545Z,1.45
2022-10-05T03:14:07.909Z,1.50
2022-10-05T03:16:41.119Z,1.85
2022-10-05T03:19:32.487Z,1.70
2022-10-05T03:22:20.964Z,1.70
2022-10-05T03:25:02.558Z,1.95
2022-10-05T03:27:35.520Z,1.30
2022-10-05T03:30:17.477Z,1.30
2022-10-05T03:33:21.499Z,1.58
2022-10-05T03:36:07.379Z,1.27
2022-10-05T03:38:44.466Z,1.38
2022-10-05T03:41:39.296Z,1.30
2022-10-05T03:44:30.439Z,1.48
2022-10-05T03:47:16.212Z,1.13
2022-10-05T03:50:15.499Z,1.30
2022-10-05T03:52:54.879Z,1.38
2022-10-05T03:55:31.159Z,3.10
2022-10-05T03:58:03.972Z,1.33
2022-10-05T04:00:32.465Z,1.67
2022-10-05T04:03:21.183Z,1.63
2022-10-05T04:06:15.162Z,1.50
2022-10-05T04:09:10.119Z,1.50
2022-10-05T04:11:46.721Z,1.83
2022-10-05T04:14:16.646Z,3.78
2022-10-05T04:16:45.767Z,2.05
2022-10-05T04:19:25.600Z,1.15
2022-10-05T04:22:00.490Z,1.35
2022-10-05T04:24:37.509Z,1.20
2022-10-05T04:27:12.039Z,1.58
2022-10-05T04:29:47.606Z,2.88
2022-10-05T04:32:30.685Z,1.83
2022-10-05T04:35:12.764Z,1.25
2022-10-05T04:37:58.794Z,1.27
2022-10-05T04:40:40.760Z,1.30
2022-10-05T04:43:29.532Z,1.10
2022-10-05T04:46:08.655Z,1.42
2022-10-05T04:49:18.856Z,1.10
2022-10-05T04:51:58.602Z,1.42
2022-10-05T04:54:43.655Z,1.40
2022-10-05T04:57:29.685Z,1.50
2022-10-05T05:00:05.584Z,1.40
2022-10-05T05:02:56.103Z,0.98
2022-10-05T05:05:58.925Z,1.23
2022-10-05T05:09:12.021Z,1.00
2022-10-05T05:12:03.841Z,1.30
2022-10-05T05:14:56.040Z,1.65
2022-10-05T05:17:26.363Z,1.10
2022-10-05T05:20:02.487Z,1.52
2022-10-05T05:22:50.962Z,1.98
2022-10-05T05:25:27.253Z,1.27
2022-10-05T05:28:01.400Z,1.10
2022-10-05T05:30:44.269Z,0.80
2022-10-05T05:33:20.133Z,1.17
2022-10-05T05:36:44.718Z,3.00
2022-10-05T05:39:57.637Z,1.15
2022-10-05T05:42:59.029Z,1.80
2022-10-05T05:45:49.913Z,1.77
2022-10-05T05:48:23.425Z,1.38
2022-10-05T05:51:09.152Z,2.03
2022-10-05T05:53:58.840Z,2.20
2022-10-05T05:56:36.288Z,1.80
2022-10-05T05:59:20.069Z,1.83
2022-10-05T06:01:52.556Z,2.03
2022-10-05T06:04:33.281Z,2.05
2022-10-05T06:07:04.761Z,0.80
2022-10-05T06:09:41.796Z,1.48
2022-10-05T06:12:28.961Z,2.58
2022-10-05T06:15:03.301Z,2.13
2022-10-05T06:18:11.281Z,2.13
2022-10-05T06:21:06.872Z,1.00
2022-10-05T06:23:41.541Z,1.00
2022-10-05T06:26:39.597Z,1.20
2022-10-05T06:29:14.147Z,1.33
2022-10-05T06:34:56.636Z,1.10
2022-10-05T06:38:03.070Z,2.45
2022-10-05T06:40:39.116Z,1.02
2022-10-05T06:43:35.957Z,1.05
2022-10-05T06:46:38.763Z,1.00
2022-10-05T06:49:23.427Z,1.23
2022-10-05T06:52:14.376Z,0.90
2022-10-05T06:55:00.120Z,1.23
2022-10-05T06:57:51.283Z,0.98
2022-10-05T07:00:48.760Z,0.93
2022-10-05T07:03:42.556Z,1.02
2022-10-05T07:06:38.049Z,1.30
2022-10-05T07:09:27.408Z,1.52
2022-10-05T07:12:19.248Z,1.42
2022-10-05T07:14:56.322Z,1.10
2022-10-05T07:17:49.643Z,0.90
2022-10-05T07:20:37.669Z,1.00
2022-10-05T07:23:25.826Z,2.05
2022-10-05T07:26:01.076Z,0.90
2022-10-05T07:28:52.005Z,0.90
2022-10-05T07:31:37.538Z,0.93
2022-10-05T07:34:18.882Z,1.17
2022-10-05T07:37:28.142Z,1.52
2022-10-05T07:40:23.373Z,2.58
2022-10-05T07:43:03.281Z,1.20
2022-10-05T07:45:42.324Z,1.30
2022-10-05T07:48:22.284Z,0.82
2022-10-05T07:51:24.557Z,1.10
2022-10-05T07:54:12.060Z,1.15
2022-10-05T07:56:48.834Z,1.52
2022-10-05T07:59:34.440Z,0.88
2022-10-05T08:02:23.634Z,1.30
2022-10-05T08:05:11.945Z,2.10
2022-10-05T08:07:40.225Z,1.25
2022-10-05T08:10:38.337Z,0.80
2022-10-05T08:13:19.586Z,1.42
2022-10-05T08:15:52.006Z,1.42
2022-10-05T08:18:40.325Z,1.35
2022-10-05T08:21:12.080Z,1.85
2022-10-05T08:23:58.467Z,1.10
2022-10-05T08:26:38.713Z,2.25
2022-10-05T08:29:39.182Z,2.58
2022-10-05T08:32:14.294Z,2.08
2022-10-05T08:35:24.653Z,1.80
2022-10-05T08:37:52.801Z,1.38
2022-10-05T08:40:25.829Z,1.30
2022-10-05T08:43:07.217Z,2.25
2022-10-05T08:45:40.187Z,1.55
2022-10-05T08:48:19.218Z,2.22
2022-10-05T08:51:08.069Z,2.72
2022-10-05T08:53:47.437Z,2.13
2022-10-05T08:56:19.727Z,3.40
2022-10-05T08:59:04.584Z,1.98
2022-10-05T09:01:50.676Z,3.72
2022-10-05T09:04:39.529Z,3.05
2022-10-05T09:07:31.183Z,2.72
2022-10-05T09:10:25.697Z,2.90
2022-10-05T09:13:23.536Z,3.67
2022-10-05T09:16:16.002Z,3.22
2022-10-05T09:18:46.100Z,1.90
2022-10-05T09:21:40.123Z,3.25
2022-10-05T09:24:13.348Z,1.50
2022-10-05T09:26:59.601Z,3.05
2022-10-05T09:29:38.475Z,3.17
2022-10-05T09:32:25.081Z,1.95
2022-10-05T09:35:02.283Z,2.33
2022-10-05T09:38:02.058Z,3.10
2022-10-05T09:40:47.646Z,3.50
2022-10-05T09:43:25.403Z,3.45
2022-10-05T09:46:23.740Z,3.78
2022-10-05T09:49:15.905Z,1.80
2022-10-05T09:52:20.653Z,1.67
2022-10-05T09:54:53.444Z,3.00
2022-10-05T09:57:42.315Z,2.35
2022-10-05T10:00:35.983Z,3.65
2022-10-05T10:03:18.986Z,2.38
2022-10-05T10:06:13.720Z,1.98
2022-10-05T10:09:01.468Z,1.30
2022-10-05T10:11:47.734Z,3.60
2022-10-05T10:15:02.968Z,1.30
2022-10-05T10:18:04.578Z,3.03
2022-10-05T10:20:54.479Z,1.63
2022-10-05T10:23:30.819Z,1.90
2022-10-05T10:26:35.045Z,1.98
2022-10-05T10:29:05.453Z,2.42
2022-10-05T10:32:03.984Z,4.57
2022-10-05T10:34:55.869Z,2.10
2022-10-05T10:37:32.460Z,2.70
2022-10-05T10:40:34.899Z,4.60
2022-10-05T10:43:10.939Z,4.10
2022-10-05T10:45:40.881Z,2.90
2022-10-05T10:48:18.450Z,3.53
2022-10-05T10:51:05.909Z,3.78
2022-10-05T10:54:03.979Z,3.88
2022-10-05T10:56:50.248Z,5.28
2022-10-05T10:59:41.432Z,3.03
2022-10-05T11:02:37.451Z,3.70
2022-10-05T11:05:38.424Z,2.45
2022-10-05T11:08:35.665Z,2.22
2022-10-05T11:11:37.277Z,4.72
2022-10-05T11:14:25.423Z,3.20
2022-10-05T11:16:52.659Z,1.77
2022-10-05T11:20:06.777Z,2.58
2022-10-05T11:23:03.297Z,2.13
2022-10-05T11:25:48.263Z,2.55
2022-10-05T11:31:36.541Z,2.50
2022-10-05T11:34:23.107Z,2.45
2022-10-05T11:37:08.172Z,3.25
2022-10-05T11:39:43.563Z,4.25
2022-10-05T11:42:28.757Z,2.90
2022-10-05T11:45:19.275Z,5.30
2022-10-05T11:48:17.309Z,5.68
2022-10-05T11:51:04.989Z,4.95
2022-10-05T11:54:17.565Z,3.80
2022-10-05T11:57:12.313Z,3.20
2022-10-05T12:00:01.261Z,3.90
2022-10-05T12:02:50.006Z,3.25
2022-10-05T12:05:22.847Z,3.42
2022-10-05T12:07:56.118Z,3.50
2022-10-05T12:10:46.516Z,4.95
2022-10-05T12:13:51.191Z,3.88
2022-10-05T12:16:24.857Z,5.22
2022-10-05T12:19:22.044Z,4.93
2022-10-05T12:22:09.894Z,3.90
2022-10-05T12:24:37.063Z,2.97
2022-10-05T12:27:36.733Z,5.68
2022-10-05T12:30:19.089Z,5.32
2022-10-05T12:32:56.890Z,5.40
2022-10-05T12:35:49.130Z,4.07
2022-10-05T12:38:44.153Z,4.75
2022-10-05T12:41:18.606Z,3.83
2022-10-05T12:44:11.692Z,4.38
2022-10-05T12:46:53.211Z,4.63
2022-10-05T12:49:47.560Z,1.85
2022-10-05T12:52:23.044Z,3.20
2022-10-05T12:54:58.981Z,2.83
2022-10-05T12:57:43.979Z,2.90
2022-10-05T13:02:43.150Z,4.13
2022-10-05T13:05:10.337Z,3.70
2022-10-05T13:08:03.851Z,2.03
2022-10-05T13:10:43.520Z,2.40
2022-10-05T13:13:29.448Z,2.92
2022-10-05T13:16:17.946Z,2.47
2022-10-05T13:19:05.755Z,4.50
2022-10-05T13:21:55.241Z,3.63
2022-10-05T13:24:49.394Z,2.60
2022-10-05T13:27:35.564Z,2.80
2022-10-05T13:30:20.768Z,2.55
2022-10-05T13:33:14.814Z,2.08
2022-10-05T13:35:56.457Z,3.17
2022-10-05T13:38:34.145Z,4.78
2022-10-05T13:41:13.362Z,4.13
2022-10-05T13:44:02.147Z,7.22
2022-10-05T13:46:49.951Z,8.65
2022-10-05T13:49:42.584Z,9.30
2022-10-05T13:52:39.437Z,11.23
2022-10-05T13:55:15.888Z,9.05
2022-10-05T13:57:57.530Z,17.27
2022-10-05T14:00:27.366Z,11.38
2022-10-05T14:02:59.650Z,13.90
2022-10-05T14:05:28.233Z,12.98
2022-10-05T14:07:56.781Z,11.48
2022-10-05T14:10:39.734Z,11.25
2022-10-05T14:13:33.665Z,10.02
2022-10-05T14:16:22.180Z,8.95
2022-10-05T14:18:52.525Z,5.18
2022-10-05T14:21:30.040Z,4.93
2022-10-05T14:24:32.135Z,7.63
2022-10-05T14:27:33.235Z,3.80
2022-10-05T14:30:18.079Z,5.35
2022-10-05T14:32:59.144Z,6.60
2022-10-05T14:35:51.739Z,4.82
2022-10-05T14:38:35.219Z,2.90
2022-10-05T14:41:27.338Z,5.32
2022-10-05T14:43:57.878Z,5.45
2022-10-05T14:46:32.633Z,2.72
2022-10-05T14:49:25.735Z,4.53
2022-10-05T14:51:55.063Z,3.88
2022-10-05T14:54:53.839Z,3.72
2022-10-05T14:57:39.272Z,5.00
2022-10-05T15:00:16.453Z,3.92
2022-10-05T15:03:10.708Z,4.00
2022-10-05T15:05:49.151Z,2.67
2022-10-05T15:08:45.844Z,3.53
2022-10-05T15:11:21.522Z,3.38
2022-10-05T15:13:49.696Z,2.67
2022-10-05T15:16:33.963Z,4.47
2022-10-05T15:19:15.961Z,3.88
2022-10-05T15:22:08.279Z,3.70
2022-10-05T15:24:45.388Z,3.13
2022-10-05T15:27:44.526Z,3.20
2022-10-05T15:30:18.386Z,2.40
2022-10-05T15:33:11.151Z,5.60
2022-10-05T15:35:44.203Z,3.65
2022-10-05T15:38:32.896Z,3.00
2022-10-05T15:41:08.081Z,2.78
2022-10-05T15:43:50.329Z,1.27
2022-10-05T15:46:56.769Z,2.65
2022-10-05T15:49:48.996Z,3.03
2022-10-05T15:52:48.720Z,1.75
2022-10-05T15:55:19.620Z,3.85
2022-10-05T15:58:18.072Z,3.40
2022-10-05T16:00:49.020Z,2.70
2022-10-05T16:03:37.756Z,3.90
2022-10-05T16:06:38.281Z,2.10
2022-10-05T16:09:36.370Z,2.72
2022-10-05T16:12:46.401Z,3.05
2022-10-05T16:15:42.723Z,3.90
2022-10-05T16:18:32.610Z,2.22
2022-10-05T16:21:10.926Z,3.25
2022-10-05T16:23:55.449Z,2.83
2022-10-05T16:26:44.310Z,2.15
2022-10-05T16:29:23.940Z,2.75
2022-10-05T16:31:54.366Z,3.20
2022-10-05T16:34:27.915Z,3.83
2022-10-05T16:37:13.218Z,3.53
2022-10-05T16:39:58.824Z,8.13
2022-10-05T16:42:41.978Z,11.95
2022-10-05T16:45:44.961Z,14.77
2022-10-05T16:48:45.427Z,11.90
2022-10-05T16:51:37.023Z,12.27
2022-10-05T16:54:11.550Z,8.00
2022-10-05T16:59:37.286Z,7.00
2022-10-05T17:02:30.280Z,8.45
2022-10-05T17:05:31.823Z,9.93
2022-10-05T17:08:33.415Z,8.68
2022-10-05T17:11:55.317Z,10.93
2022-10-05T17:14:58.251Z,7.38
2022-10-05T17:17:44.308Z,7.15
2022-10-05T17:20:23.720Z,6.05
2022-10-05T17:23:16.373Z,4.57
2022-10-05T17:26:16.836Z,7.80
2022-10-05T17:29:00.453Z,6.38
2022-10-05T17:31:31.233Z,8.95
2022-10-05T17:34:29.207Z,6.90
2022-10-05T17:37:38.419Z,7.65
2022-10-05T17:40:44.809Z,6.97
2022-10-05T17:43:15.380Z,7.22
2022-10-05T17:45:42.592Z,3.95
2022-10-05T17:48:33.548Z,5.82
2022-10-05T17:51:19.368Z,5.15
2022-10-05T17:54:08.620Z,8.73
2022-10-05T17:56:48.045Z,5.10
2022-10-05T17:59:53.675Z,5.45
2022-10-05T18:05:17.745Z,5.85
2022-10-05T18:08:08.785Z,5.95
2022-10-05T18:10:41.111Z,3.53
2022-10-05T18:13:36.831Z,3.30
2022-10-05T18:16:04.540Z,6.00
2022-10-05T18:18:54.651Z,8.15
2022-10-05T18:21:28.773Z,8.05
2022-10-05T18:23:58.825Z,5.80
2022-10-05T18:26:44.725Z,4.47
2022-10-05T18:29:53.098Z,3.65
2022-10-05T18:32:34.986Z,5.50
2022-10-05T18:35:32.634Z,4.82
2022-10-05T18:38:38.101Z,5.28
2022-10-05T18:41:20.689Z,6.43
2022-10-05T18:44:12.291Z,7.55
2022-10-05T18:46:55.507Z,4.00
2022-10-05T18:49:50.631Z,5.07
2022-10-05T18:52:46.502Z,4.05
2022-10-05T18:55:39.138Z,7.35
2022-10-05T18:58:26.674Z,4.40
2022-10-05T19:00:57.111Z,9.98
2022-10-05T19:03:54.982Z,4.82
2022-10-05T19:06:32.899Z,7.40
2022-10-05T19:09:30.912Z,7.47
2022-10-05T19:12:14.488Z,6.00
2022-10-05T19:15:24.832Z,5.38
2022-10-05T19:18:21.488Z,6.47
2022-10-05T19:21:09.987Z,7.00
2022-10-05T19:24:07.176Z,4.60
2022-10-05T19:27:13.691Z,11.77
2022-10-05T19:29:47.920Z,6.32
2022-10-05T19:32:42.964Z,5.72
2022-10-05T19:35:29.273Z,6.18
2022-10-05T19:38:26.630Z,5.35
2022-10-05T19:41:01.234Z,5.50
2022-10-05T19:46:12.603Z,4.60
2022-10-05T19:48:51.708Z,6.18
2022-10-05T19:51:28.731Z,4.43
2022-10-05T19:54:10.399Z,6.78
2022-10-05T19:56:49.615Z,3.65
2022-10-05T19:59:34.802Z,3.85
2022-10-05T20:02:04.064Z,6.80
2022-10-05T20:04:40.460Z,4.13
2022-10-05T20:07:17.178Z,4.53
2022-10-05T20:09:58.074Z,5.10
2022-10-05T20:12:50.564Z,4.65
2022-10-05T20:15:39.499Z,2.50
2022-10-05T20:19:10.497Z,4.22
2022-10-05T20:21:50.252Z,5.20
2022-10-05T20:24:26.690Z,3.95
2022-10-05T20:27:16.169Z,4.05
2022-10-05T20:29:45.095Z,3.90
2022-10-05T20:32:15.444Z,2.75
2022-10-05T20:34:45.751Z,3.38
2022-10-05T20:37:15.427Z,3.22
2022-10-05T20:39:43.884Z,2.45
2022-10-05T20:42:11.707Z,2.30
2022-10-05T20:44:38.990Z,3.20
2022-10-05T20:47:09.695Z,2.50
2022-10-05T20:49:38.819Z,2.95
2022-10-05T20:52:09.625Z,1.80
2022-10-05T20:54:38.512Z,2.80
2022-10-05T20:57:06.546Z,2.10
2022-10-05T20:59:35.123Z,4.53
2022-10-05T21:02:03.834Z,1.38
2022-10-05T21:04:40.217Z,2.13
2022-10-05T21:07:08.292Z,3.05
2022-10-05T21:09:38.317Z,3.47
2022-10-05T21:12:05.857Z,2.50
2022-10-05T21:14:34.485Z,3.22
2022-10-05T21:17:02.131Z,2.25
2022-10-05T21:19:29.736Z,2.08
2022-10-05T21:21:59.749Z,2.55
2022-10-05T21:24:26.968Z,2.38
2022-10-05T21:26:57.450Z,2.22
2022-10-05T21:29:24.745Z,2.92
2022-10-05T21:31:52.061Z,2.00
2022-10-05T21:34:19.364Z,2.38
2022-10-05T21:36:46.646Z,3.03
2022-10-05T21:39:14.020Z,1.67
2022-10-05T21:41:41.231Z,2.70
2022-10-05T21:44:08.621Z,1.58
2022-10-05T21:46:37.629Z,2.15
2022-10-05T21:49:07.109Z,1.30
2022-10-05T21:51:35.792Z,2.40
2022-10-05T21:54:08.536Z,3.25
2022-10-05T21:56:38.576Z,5.13
2022-10-05T21:59:08.824Z,2.42
2022-10-05T22:01:36.589Z,1.40
2022-10-05T22:04:05.586Z,1.95
2022-10-05T22:06:34.096Z,2.75
2022-10-05T22:09:01.840Z,2.97
2022-10-05T22:11:29.446Z,2.38
2022-10-05T22:14:02.796Z,1.55
2022-10-05T22:16:36.656Z,3.35
2022-10-05T22:19:07.252Z,3.10
2022-10-05T22:21:41.500Z,2.63
2022-10-05T22:24:11.717Z,2.10
2022-10-05T22:26:41.724Z,2.72
2022-10-05T22:29:09.887Z,2.60
2022-10-05T22:31:37.806Z,1.77
2022-10-05T22:34:05.170Z,2.15
2022-10-05T22:36:35.355Z,2.47
2022-10-05T22:39:02.949Z,2.08
2022-10-05T22:41:30.251Z,2.25
2022-10-05T22:43:57.501Z,1.73
2022-10-05T22:46:25.072Z,3.95
2022-10-05T22:48:52.509Z,3.20
2022-10-05T22:51:19.752Z,3.85
2022-10-05T22:53:47.027Z,3.40
2022-10-05T22:56:14.760Z,2.65
2022-10-05T22:58:42.961Z,2.28
2022-10-05T23:01:13.001Z,2.25
2022-10-05T23:03:40.419Z,2.75
2022-10-05T23:06:14.341Z,2.67
2022-10-05T23:08:42.373Z,2.83
2022-10-05T23:11:15.787Z,5.25
2022-10-05T23:13:43.862Z,2.13
2022-10-05T23:16:14.030Z,2.70
2022-10-05T23:18:41.780Z,2.33
2022-10-05T23:21:10.450Z,3.08
2022-10-05T23:23:39.739Z,3.97
2022-10-05T23:26:09.769Z,2.58
2022-10-05T23:28:38.664Z,2.13
2022-10-05T23:31:07.732Z,2.30
2022-10-05T23:33:35.893Z,3.33
2022-10-05T23:36:06.528Z,2.35
2022-10-05T23:38:35.653Z,3.03
2022-10-05T23:41:04.093Z,3.47
2022-10-05T23:43:33.297Z,2.95
2022-10-05T23:46:01.789Z,3.03
2022-10-05T23:48:30.628Z,2.20
2022-10-05T23:50:59.095Z,3.28
2022-10-05T23:53:26.517Z,3.42
2022-10-05T23:55:54.935Z,2.90
2022-10-05T23:58:22.992Z,2.38
